sensor_id;sensor_type;location;lat;lon;timestamp;P1;durP1;ratioP1;P2;durP2;ratioP2
6725;SDS011;3400;48.506;11.692;2023-04-23T00:00:48;2.40;;;2.20;;
6725;SDS011;3400;48.506;11.692;2023-04-23T00:03:20;2.77;;;2.57;;
6725;SDS011;3400;48.506;11.692;2023-04-23T00:05:50;3.33;;;2.97;;
6725;SDS011;3400;48.506;11.692;2023-04-23T00:08:19;3.20;;;2.90;;
6725;SDS011;3400;48.506;11.692;2023-04-23T00:10:47;3.93;;;2.67;;
6725;SDS011;3400;48.506;11.692;2023-04-23T00:13:15;3.30;;;2.70;;
6725;SDS011;3400;48.506;11.692;2023-04-23T00:15:43;3.00;;;2.70;;
6725;SDS011;3400;48.506;11.692;2023-04-23T00:18:11;3.20;;;2.47;;
6725;SDS011;3400;48.506;11.692;2023-04-23T00:20:43;5.43;;;2.97;;
6725;SDS011;3400;48.506;11.692;2023-04-23T00:23:11;4.27;;;2.53;;
6725;SDS011;3400;48.506;11.692;2023-04-23T00:25:38;2.67;;;2.40;;
6725;SDS011;3400;48.506;11.692;2023-04-23T00:28:06;3.20;;;2.80;;
6725;SDS011;3400;48.506;11.692;2023-04-23T00:30:34;4.27;;;2.73;;
6725;SDS011;3400;48.506;11.692;2023-04-23T00:33:02;3.20;;;2.40;;
6725;SDS011;3400;48.506;11.692;2023-04-23T00:35:30;3.13;;;2.73;;
6725;SDS011;3400;48.506;11.692;2023-04-23T00:37:59;4.63;;;2.60;;
6725;SDS011;3400;48.506;11.692;2023-04-23T00:40:27;4.33;;;2.57;;
6725;SDS011;3400;48.506;11.692;2023-04-23T00:42:55;4.30;;;2.67;;
6725;SDS011;3400;48.506;11.692;2023-04-23T00:45:23;3.73;;;2.43;;
6725;SDS011;3400;48.506;11.692;2023-04-23T00:47:52;4.10;;;2.67;;
6725;SDS011;3400;48.506;11.692;2023-04-23T00:50:20;3.13;;;2.10;;
6725;SDS011;3400;48.506;11.692;2023-04-23T00:52:48;2.40;;;2.20;;
6725;SDS011;3400;48.506;11.692;2023-04-23T00:55:17;3.70;;;2.77;;
6725;SDS011;3400;48.506;11.692;2023-04-23T00:57:45;3.67;;;2.80;;
6725;SDS011;3400;48.506;11.692;2023-04-23T01:00:14;4.73;;;2.27;;
6725;SDS011;3400;48.506;11.692;2023-04-23T01:02:42;6.80;;;2.67;;
6725;SDS011;3400;48.506;11.692;2023-04-23T01:05:12;3.13;;;2.63;;
6725;SDS011;3400;48.506;11.692;2023-04-23T01:07:40;3.53;;;2.57;;
6725;SDS011;3400;48.506;11.692;2023-04-23T01:10:10;5.03;;;3.20;;
6725;SDS011;3400;48.506;11.692;2023-04-23T01:12:40;5.67;;;2.57;;
6725;SDS011;3400;48.506;11.692;2023-04-23T01:15:08;3.47;;;2.53;;
6725;SDS011;3400;48.506;11.692;2023-04-23T01:17:36;6.77;;;3.10;;
6725;SDS011;3400;48.506;11.692;2023-04-23T01:20:05;2.37;;;2.17;;
6725;SDS011;3400;48.506;11.692;2023-04-23T01:22:36;3.20;;;2.53;;
6725;SDS011;3400;48.506;11.692;2023-04-23T01:25:04;2.93;;;2.30;;
6725;SDS011;3400;48.506;11.692;2023-04-23T01:27:33;3.37;;;2.40;;
6725;SDS011;3400;48.506;11.692;2023-04-23T01:30:01;4.30;;;2.53;;
6725;SDS011;3400;48.506;11.692;2023-04-23T01:32:30;3.57;;;2.40;;
6725;SDS011;3400;48.506;11.692;2023-04-23T01:34:59;2.83;;;2.40;;
6725;SDS011;3400;48.506;11.692;2023-04-23T01:37:28;2.27;;;2.13;;
6725;SDS011;3400;48.506;11.692;2023-04-23T01:39:57;2.70;;;2.50;;
6725;SDS011;3400;48.506;11.692;2023-04-23T01:42:25;3.50;;;3.20;;
6725;SDS011;3400;48.506;11.692;2023-04-23T01:44:53;3.87;;;3.00;;
6725;SDS011;3400;48.506;11.692;2023-04-23T01:47:22;4.63;;;2.90;;
6725;SDS011;3400;48.506;11.692;2023-04-23T01:49:50;3.03;;;2.77;;
6725;SDS011;3400;48.506;11.692;2023-04-23T01:52:18;2.77;;;2.57;;
6725;SDS011;3400;48.506;11.692;2023-04-23T01:54:45;4.10;;;2.80;;
6725;SDS011;3400;48.506;11.692;2023-04-23T01:57:15;5.20;;;3.10;;
6725;SDS011;3400;48.506;11.692;2023-04-23T01:59:48;3.67;;;3.13;;
6725;SDS011;3400;48.506;11.692;2023-04-23T02:02:16;3.30;;;3.00;;
6725;SDS011;3400;48.506;11.692;2023-04-23T02:04:45;2.90;;;2.70;;
6725;SDS011;3400;48.506;11.692;2023-04-23T02:07:14;4.57;;;2.70;;
6725;SDS011;3400;48.506;11.692;2023-04-23T02:09:42;6.97;;;2.90;;
6725;SDS011;3400;48.506;11.692;2023-04-23T02:12:10;3.57;;;2.97;;
6725;SDS011;3400;48.506;11.692;2023-04-23T02:14:39;3.57;;;2.50;;
6725;SDS011;3400;48.506;11.692;2023-04-23T02:17:07;3.50;;;2.57;;
6725;SDS011;3400;48.506;11.692;2023-04-23T02:19:35;5.63;;;3.20;;
6725;SDS011;3400;48.506;11.692;2023-04-23T02:22:03;4.57;;;3.13;;
6725;SDS011;3400;48.506;11.692;2023-04-23T02:24:32;3.73;;;3.20;;
6725;SDS011;3400;48.506;11.692;2023-04-23T02:27:00;2.90;;;2.70;;
6725;SDS011;3400;48.506;11.692;2023-04-23T02:29:28;4.67;;;3.10;;
6725;SDS011;3400;48.506;11.692;2023-04-23T02:31:57;3.17;;;2.63;;
6725;SDS011;3400;48.506;11.692;2023-04-23T02:34:25;3.47;;;3.00;;
6725;SDS011;3400;48.506;11.692;2023-04-23T02:36:53;3.83;;;3.40;;
6725;SDS011;3400;48.506;11.692;2023-04-23T02:39:21;3.77;;;2.67;;
6725;SDS011;3400;48.506;11.692;2023-04-23T02:41:48;3.90;;;3.13;;
6725;SDS011;3400;48.506;11.692;2023-04-23T02:44:16;2.80;;;2.60;;
6725;SDS011;3400;48.506;11.692;2023-04-23T02:46:44;4.33;;;3.27;;
6725;SDS011;3400;48.506;11.692;2023-04-23T02:49:13;4.47;;;3.10;;
6725;SDS011;3400;48.506;11.692;2023-04-23T02:51:41;3.60;;;3.30;;
6725;SDS011;3400;48.506;11.692;2023-04-23T02:54:09;3.77;;;3.37;;
6725;SDS011;3400;48.506;11.692;2023-04-23T02:56:37;3.37;;;3.07;;
6725;SDS011;3400;48.506;11.692;2023-04-23T02:59:05;5.23;;;2.93;;
6725;SDS011;3400;48.506;11.692;2023-04-23T03:01:33;4.40;;;3.03;;
6725;SDS011;3400;48.506;11.692;2023-04-23T03:04:02;5.30;;;3.30;;
6725;SDS011;3400;48.506;11.692;2023-04-23T03:06:32;3.03;;;2.73;;
6725;SDS011;3400;48.506;11.692;2023-04-23T03:09:00;3.63;;;3.33;;
6725;SDS011;3400;48.506;11.692;2023-04-23T03:11:28;3.90;;;3.17;;
6725;SDS011;3400;48.506;11.692;2023-04-23T03:13:56;3.43;;;2.93;;
6725;SDS011;3400;48.506;11.692;2023-04-23T03:16:25;5.53;;;3.60;;
6725;SDS011;3400;48.506;11.692;2023-04-23T03:18:54;3.60;;;3.00;;
6725;SDS011;3400;48.506;11.692;2023-04-23T03:21:22;7.10;;;2.97;;
6725;SDS011;3400;48.506;11.692;2023-04-23T03:23:52;3.60;;;2.50;;
6725;SDS011;3400;48.506;11.692;2023-04-23T03:26:21;3.57;;;2.80;;
6725;SDS011;3400;48.506;11.692;2023-04-23T03:28:50;3.87;;;2.83;;
6725;SDS011;3400;48.506;11.692;2023-04-23T03:31:18;3.30;;;2.87;;
6725;SDS011;3400;48.506;11.692;2023-04-23T03:33:46;5.53;;;2.70;;
6725;SDS011;3400;48.506;11.692;2023-04-23T03:36:20;3.63;;;2.93;;
6725;SDS011;3400;48.506;11.692;2023-04-23T03:38:48;5.27;;;2.60;;
6725;SDS011;3400;48.506;11.692;2023-04-23T03:41:19;4.37;;;2.93;;
6725;SDS011;3400;48.506;11.692;2023-04-23T03:43:48;2.87;;;2.67;;
6725;SDS011;3400;48.506;11.692;2023-04-23T03:46:19;3.73;;;2.87;;
6725;SDS011;3400;48.506;11.692;2023-04-23T03:48:47;3.77;;;2.13;;
6725;SDS011;3400;48.506;11.692;2023-04-23T03:51:22;3.33;;;2.60;;
6725;SDS011;3400;48.506;11.692;2023-04-23T03:53:50;2.73;;;2.53;;
6725;SDS011;3400;48.506;11.692;2023-04-23T03:56:37;2.90;;;2.60;;
6725;SDS011;3400;48.506;11.692;2023-04-23T03:59:23;3.73;;;2.50;;
6725;SDS011;3400;48.506;11.692;2023-04-23T04:01:53;2.93;;;2.63;;
6725;SDS011;3400;48.506;11.692;2023-04-23T04:04:24;3.20;;;2.90;;
6725;SDS011;3400;48.506;11.692;2023-04-23T04:06:54;5.07;;;3.50;;
6725;SDS011;3400;48.506;11.692;2023-04-23T04:09:26;4.17;;;2.77;;
6725;SDS011;3400;48.506;11.692;2023-04-23T04:11:55;4.47;;;3.27;;
6725;SDS011;3400;48.506;11.692;2023-04-23T04:14:23;4.90;;;3.00;;
6725;SDS011;3400;48.506;11.692;2023-04-23T04:16:51;3.97;;;3.20;;
6725;SDS011;3400;48.506;11.692;2023-04-23T04:19:19;5.63;;;3.87;;
6725;SDS011;3400;48.506;11.692;2023-04-23T04:21:47;6.73;;;3.40;;
6725;SDS011;3400;48.506;11.692;2023-04-23T04:24:16;3.73;;;3.30;;
6725;SDS011;3400;48.506;11.692;2023-04-23T04:26:44;5.70;;;3.80;;
6725;SDS011;3400;48.506;11.692;2023-04-23T04:29:13;3.63;;;3.33;;
6725;SDS011;3400;48.506;11.692;2023-04-23T04:31:41;3.93;;;3.50;;
6725;SDS011;3400;48.506;11.692;2023-04-23T04:34:09;6.40;;;4.10;;
6725;SDS011;3400;48.506;11.692;2023-04-23T04:36:39;7.13;;;3.90;;
6725;SDS011;3400;48.506;11.692;2023-04-23T04:39:07;4.53;;;3.43;;
6725;SDS011;3400;48.506;11.692;2023-04-23T04:41:35;4.40;;;4.00;;
6725;SDS011;3400;48.506;11.692;2023-04-23T04:44:03;5.60;;;4.23;;
6725;SDS011;3400;48.506;11.692;2023-04-23T04:46:33;5.07;;;4.23;;
6725;SDS011;3400;48.506;11.692;2023-04-23T04:49:05;4.83;;;4.20;;
6725;SDS011;3400;48.506;11.692;2023-04-23T04:51:34;4.43;;;3.90;;
6725;SDS011;3400;48.506;11.692;2023-04-23T04:54:03;5.00;;;4.23;;
6725;SDS011;3400;48.506;11.692;2023-04-23T04:56:31;4.17;;;3.87;;
6725;SDS011;3400;48.506;11.692;2023-04-23T04:58:58;5.63;;;4.47;;
6725;SDS011;3400;48.506;11.692;2023-04-23T05:01:26;4.67;;;4.27;;
6725;SDS011;3400;48.506;11.692;2023-04-23T05:03:56;5.50;;;3.90;;
6725;SDS011;3400;48.506;11.692;2023-04-23T05:06:24;6.10;;;4.50;;
6725;SDS011;3400;48.506;11.692;2023-04-23T05:08:53;9.83;;;4.07;;
6725;SDS011;3400;48.506;11.692;2023-04-23T05:11:21;4.80;;;4.40;;
6725;SDS011;3400;48.506;11.692;2023-04-23T05:13:49;4.30;;;3.90;;
6725;SDS011;3400;48.506;11.692;2023-04-23T05:16:17;7.30;;;4.10;;
6725;SDS011;3400;48.506;11.692;2023-04-23T05:18:45;4.80;;;4.30;;
6725;SDS011;3400;48.506;11.692;2023-04-23T05:21:15;4.73;;;4.33;;
6725;SDS011;3400;48.506;11.692;2023-04-23T05:23:44;6.30;;;3.90;;
6725;SDS011;3400;48.506;11.692;2023-04-23T05:26:12;6.37;;;5.10;;
6725;SDS011;3400;48.506;11.692;2023-04-23T05:28:39;4.87;;;4.27;;
6725;SDS011;3400;48.506;11.692;2023-04-23T05:31:07;7.30;;;4.20;;
6725;SDS011;3400;48.506;11.692;2023-04-23T05:33:35;6.20;;;4.33;;
6725;SDS011;3400;48.506;11.692;2023-04-23T05:36:03;5.50;;;4.67;;
6725;SDS011;3400;48.506;11.692;2023-04-23T05:38:32;5.50;;;5.00;;
6725;SDS011;3400;48.506;11.692;2023-04-23T05:41:00;6.10;;;4.70;;
6725;SDS011;3400;48.506;11.692;2023-04-23T05:43:29;5.47;;;4.97;;
6725;SDS011;3400;48.506;11.692;2023-04-23T05:45:56;5.47;;;4.67;;
6725;SDS011;3400;48.506;11.692;2023-04-23T05:48:24;5.63;;;4.47;;
6725;SDS011;3400;48.506;11.692;2023-04-23T05:50:52;5.77;;;5.17;;
6725;SDS011;3400;48.506;11.692;2023-04-23T05:53:20;5.20;;;4.77;;
6725;SDS011;3400;48.506;11.692;2023-04-23T05:55:49;5.70;;;5.03;;
6725;SDS011;3400;48.506;11.692;2023-04-23T05:58:17;8.17;;;5.77;;
6725;SDS011;3400;48.506;11.692;2023-04-23T06:00:45;6.77;;;4.77;;
6725;SDS011;3400;48.506;11.692;2023-04-23T06:03:14;6.50;;;5.90;;
6725;SDS011;3400;48.506;11.692;2023-04-23T06:05:42;8.30;;;5.57;;
6725;SDS011;3400;48.506;11.692;2023-04-23T06:08:10;6.13;;;5.63;;
6725;SDS011;3400;48.506;11.692;2023-04-23T06:10:37;8.90;;;5.97;;
6725;SDS011;3400;48.506;11.692;2023-04-23T06:13:07;7.57;;;5.30;;
6725;SDS011;3400;48.506;11.692;2023-04-23T06:15:35;7.07;;;5.60;;
6725;SDS011;3400;48.506;11.692;2023-04-23T06:18:03;7.43;;;6.00;;
6725;SDS011;3400;48.506;11.692;2023-04-23T06:20:31;6.33;;;5.70;;
6725;SDS011;3400;48.506;11.692;2023-04-23T06:22:59;7.40;;;4.93;;
6725;SDS011;3400;48.506;11.692;2023-04-23T06:25:27;6.50;;;5.80;;
6725;SDS011;3400;48.506;11.692;2023-04-23T06:27:55;8.90;;;5.40;;
6725;SDS011;3400;48.506;11.692;2023-04-23T06:30:28;5.97;;;5.37;;
6725;SDS011;3400;48.506;11.692;2023-04-23T06:32:56;5.90;;;5.27;;
6725;SDS011;3400;48.506;11.692;2023-04-23T06:35:24;8.20;;;5.60;;
6725;SDS011;3400;48.506;11.692;2023-04-23T06:37:52;7.90;;;5.63;;
6725;SDS011;3400;48.506;11.692;2023-04-23T06:40:20;6.47;;;5.87;;
6725;SDS011;3400;48.506;11.692;2023-04-23T06:42:47;7.63;;;6.10;;
6725;SDS011;3400;48.506;11.692;2023-04-23T06:45:33;5.30;;;4.77;;
6725;SDS011;3400;48.506;11.692;2023-04-23T06:48:01;5.63;;;5.13;;
6725;SDS011;3400;48.506;11.692;2023-04-23T06:50:29;5.97;;;4.90;;
6725;SDS011;3400;48.506;11.692;2023-04-23T06:52:57;6.53;;;4.60;;
6725;SDS011;3400;48.506;11.692;2023-04-23T06:55:27;4.90;;;4.43;;
6725;SDS011;3400;48.506;11.692;2023-04-23T06:57:56;5.00;;;4.50;;
6725;SDS011;3400;48.506;11.692;2023-04-23T07:00:24;4.90;;;4.40;;
6725;SDS011;3400;48.506;11.692;2023-04-23T07:02:53;4.27;;;3.87;;
6725;SDS011;3400;48.506;11.692;2023-04-23T07:05:21;5.30;;;4.30;;
6725;SDS011;3400;48.506;11.692;2023-04-23T07:07:49;5.00;;;4.50;;
6725;SDS011;3400;48.506;11.692;2023-04-23T07:10:17;4.70;;;4.13;;
6725;SDS011;3400;48.506;11.692;2023-04-23T07:12:45;5.90;;;4.20;;
6725;SDS011;3400;48.506;11.692;2023-04-23T07:15:13;5.07;;;4.57;;
6725;SDS011;3400;48.506;11.692;2023-04-23T07:17:41;6.00;;;4.70;;
6725;SDS011;3400;48.506;11.692;2023-04-23T07:20:10;5.70;;;5.07;;
6725;SDS011;3400;48.506;11.692;2023-04-23T07:22:38;4.33;;;3.93;;
6725;SDS011;3400;48.506;11.692;2023-04-23T07:25:06;4.33;;;3.93;;
6725;SDS011;3400;48.506;11.692;2023-04-23T07:27:34;7.53;;;5.40;;
6725;SDS011;3400;48.506;11.692;2023-04-23T07:30:02;7.20;;;6.50;;
6725;SDS011;3400;48.506;11.692;2023-04-23T07:32:30;4.87;;;4.47;;
6725;SDS011;3400;48.506;11.692;2023-04-23T07:34:58;4.93;;;3.77;;
6725;SDS011;3400;48.506;11.692;2023-04-23T07:37:27;4.10;;;3.70;;
6725;SDS011;3400;48.506;11.692;2023-04-23T07:39:55;6.23;;;5.63;;
6725;SDS011;3400;48.506;11.692;2023-04-23T07:42:23;4.80;;;3.90;;
6725;SDS011;3400;48.506;11.692;2023-04-23T07:44:51;5.20;;;3.30;;
6725;SDS011;3400;48.506;11.692;2023-04-23T07:47:19;3.43;;;3.13;;
6725;SDS011;3400;48.506;11.692;2023-04-23T07:49:51;6.17;;;3.80;;
6725;SDS011;3400;48.506;11.692;2023-04-23T07:52:19;4.53;;;3.47;;
6725;SDS011;3400;48.506;11.692;2023-04-23T07:54:49;8.37;;;5.73;;
6725;SDS011;3400;48.506;11.692;2023-04-23T07:57:17;15.43;;;12.07;;
6725;SDS011;3400;48.506;11.692;2023-04-23T07:59:45;6.27;;;5.63;;
6725;SDS011;3400;48.506;11.692;2023-04-23T08:02:13;4.47;;;3.73;;
6725;SDS011;3400;48.506;11.692;2023-04-23T08:04:43;4.40;;;3.60;;
6725;SDS011;3400;48.506;11.692;2023-04-23T08:07:10;3.53;;;3.23;;
6725;SDS011;3400;48.506;11.692;2023-04-23T08:09:38;3.70;;;3.40;;
6725;SDS011;3400;48.506;11.692;2023-04-23T08:12:08;5.00;;;3.20;;
6725;SDS011;3400;48.506;11.692;2023-04-23T08:14:37;5.60;;;3.27;;
6725;SDS011;3400;48.506;11.692;2023-04-23T08:17:14;3.60;;;3.27;;
6725;SDS011;3400;48.506;11.692;2023-04-23T08:19:42;4.20;;;3.83;;
6725;SDS011;3400;48.506;11.692;2023-04-23T08:22:10;3.53;;;3.00;;
6725;SDS011;3400;48.506;11.692;2023-04-23T08:24:38;4.20;;;3.80;;
6725;SDS011;3400;48.506;11.692;2023-04-23T08:27:08;3.57;;;3.27;;
6725;SDS011;3400;48.506;11.692;2023-04-23T08:29:36;3.67;;;3.30;;
6725;SDS011;3400;48.506;11.692;2023-04-23T08:32:03;5.73;;;3.70;;
6725;SDS011;3400;48.506;11.692;2023-04-23T08:34:32;4.27;;;3.83;;
6725;SDS011;3400;48.506;11.692;2023-04-23T08:36:59;3.67;;;3.23;;
6725;SDS011;3400;48.506;11.692;2023-04-23T08:39:27;6.47;;;3.70;;
6725;SDS011;3400;48.506;11.692;2023-04-23T08:41:58;3.80;;;3.50;;
6725;SDS011;3400;48.506;11.692;2023-04-23T08:44:30;4.00;;;3.67;;
6725;SDS011;3400;48.506;11.692;2023-04-23T08:46:58;4.60;;;4.20;;
6725;SDS011;3400;48.506;11.692;2023-04-23T08:49:27;4.43;;;4.00;;
6725;SDS011;3400;48.506;11.692;2023-04-23T08:52:05;7.13;;;4.87;;
6725;SDS011;3400;48.506;11.692;2023-04-23T08:54:35;4.73;;;4.27;;
6725;SDS011;3400;48.506;11.692;2023-04-23T08:57:04;5.40;;;4.93;;
6725;SDS011;3400;48.506;11.692;2023-04-23T08:59:34;5.57;;;4.93;;
6725;SDS011;3400;48.506;11.692;2023-04-23T09:02:02;5.80;;;4.53;;
6725;SDS011;3400;48.506;11.692;2023-04-23T09:04:34;5.70;;;5.20;;
6725;SDS011;3400;48.506;11.692;2023-04-23T09:07:02;5.80;;;4.70;;
6725;SDS011;3400;48.506;11.692;2023-04-23T09:09:32;6.37;;;3.73;;
6725;SDS011;3400;48.506;11.692;2023-04-23T09:12:01;4.67;;;4.27;;
6725;SDS011;3400;48.506;11.692;2023-04-23T09:14:30;4.33;;;3.70;;
6725;SDS011;3400;48.506;11.692;2023-04-23T09:17:00;3.80;;;3.53;;
6725;SDS011;3400;48.506;11.692;2023-04-23T09:19:28;4.27;;;3.87;;
6725;SDS011;3400;48.506;11.692;2023-04-23T09:22:00;5.57;;;4.03;;
6725;SDS011;3400;48.506;11.692;2023-04-23T09:24:27;5.30;;;4.80;;
6725;SDS011;3400;48.506;11.692;2023-04-23T09:26:56;6.57;;;4.90;;
6725;SDS011;3400;48.506;11.692;2023-04-23T09:29:24;6.47;;;5.10;;
6725;SDS011;3400;48.506;11.692;2023-04-23T09:31:53;5.90;;;5.30;;
6725;SDS011;3400;48.506;11.692;2023-04-23T09:34:28;5.90;;;5.30;;
6725;SDS011;3400;48.506;11.692;2023-04-23T09:36:58;6.73;;;5.40;;
6725;SDS011;3400;48.506;11.692;2023-04-23T09:39:28;5.70;;;5.13;;
6725;SDS011;3400;48.506;11.692;2023-04-23T09:42:01;4.77;;;4.17;;
6725;SDS011;3400;48.506;11.692;2023-04-23T09:44:31;8.33;;;3.90;;
6725;SDS011;3400;48.506;11.692;2023-04-23T09:47:07;3.37;;;3.07;;
6725;SDS011;3400;48.506;11.692;2023-04-23T09:49:46;3.47;;;3.17;;
6725;SDS011;3400;48.506;11.692;2023-04-23T09:52:15;3.33;;;2.83;;
6725;SDS011;3400;48.506;11.692;2023-04-23T09:54:47;3.60;;;3.30;;
6725;SDS011;3400;48.506;11.692;2023-04-23T09:57:15;3.40;;;3.10;;
6725;SDS011;3400;48.506;11.692;2023-04-23T09:59:43;2.50;;;2.30;;
6725;SDS011;3400;48.506;11.692;2023-04-23T10:02:12;4.13;;;2.53;;
6725;SDS011;3400;48.506;11.692;2023-04-23T10:04:41;3.13;;;1.50;;
6725;SDS011;3400;48.506;11.692;2023-04-23T10:07:12;2.90;;;2.00;;
6725;SDS011;3400;48.506;11.692;2023-04-23T10:09:41;2.40;;;2.03;;
6725;SDS011;3400;48.506;11.692;2023-04-23T10:12:09;2.10;;;1.80;;
6725;SDS011;3400;48.506;11.692;2023-04-23T10:14:37;2.50;;;2.20;;
6725;SDS011;3400;48.506;11.692;2023-04-23T10:17:05;2.07;;;1.90;;
6725;SDS011;3400;48.506;11.692;2023-04-23T10:19:33;2.53;;;2.23;;
6725;SDS011;3400;48.506;11.692;2023-04-23T10:22:06;2.03;;;1.93;;
6725;SDS011;3400;48.506;11.692;2023-04-23T10:24:36;1.93;;;1.60;;
6725;SDS011;3400;48.506;11.692;2023-04-23T10:27:09;1.70;;;1.60;;
6725;SDS011;3400;48.506;11.692;2023-04-23T10:29:37;2.03;;;1.93;;
6725;SDS011;3400;48.506;11.692;2023-04-23T10:32:06;2.43;;;2.20;;
6725;SDS011;3400;48.506;11.692;2023-04-23T10:34:34;1.97;;;1.87;;
6725;SDS011;3400;48.506;11.692;2023-04-23T10:37:02;2.60;;;2.33;;
6725;SDS011;3400;48.506;11.692;2023-04-23T10:39:31;2.27;;;2.17;;
6725;SDS011;3400;48.506;11.692;2023-04-23T10:42:01;2.27;;;1.73;;
6725;SDS011;3400;48.506;11.692;2023-04-23T10:44:32;2.50;;;2.30;;
6725;SDS011;3400;48.506;11.692;2023-04-23T10:47:01;2.53;;;2.20;;
6725;SDS011;3400;48.506;11.692;2023-04-23T10:49:31;2.80;;;2.60;;
6725;SDS011;3400;48.506;11.692;2023-04-23T10:51:59;2.70;;;2.43;;
6725;SDS011;3400;48.506;11.692;2023-04-23T10:54:28;2.30;;;2.00;;
6725;SDS011;3400;48.506;11.692;2023-04-23T10:56:57;1.60;;;1.50;;
6725;SDS011;3400;48.506;11.692;2023-04-23T10:59:27;4.00;;;2.30;;
6725;SDS011;3400;48.506;11.692;2023-04-23T11:01:56;2.20;;;2.10;;
6725;SDS011;3400;48.506;11.692;2023-04-23T11:04:25;2.50;;;2.30;;
6725;SDS011;3400;48.506;11.692;2023-04-23T11:06:54;2.47;;;2.37;;
6725;SDS011;3400;48.506;11.692;2023-04-23T11:09:35;2.73;;;2.53;;
6725;SDS011;3400;48.506;11.692;2023-04-23T11:12:07;3.30;;;2.63;;
6725;SDS011;3400;48.506;11.692;2023-04-23T11:14:41;2.30;;;2.10;;
6725;SDS011;3400;48.506;11.692;2023-04-23T11:17:12;2.80;;;2.60;;
6725;SDS011;3400;48.506;11.692;2023-04-23T11:19:41;2.37;;;2.17;;
6725;SDS011;3400;48.506;11.692;2023-04-23T11:22:12;2.57;;;2.40;;
6725;SDS011;3400;48.506;11.692;2023-04-23T11:24:42;3.97;;;2.87;;
6725;SDS011;3400;48.506;11.692;2023-04-23T11:27:12;3.43;;;2.57;;
6725;SDS011;3400;48.506;11.692;2023-04-23T11:29:42;3.97;;;2.27;;
6725;SDS011;3400;48.506;11.692;2023-04-23T11:32:11;2.60;;;2.37;;
6725;SDS011;3400;48.506;11.692;2023-04-23T11:34:40;2.50;;;2.30;;
6725;SDS011;3400;48.506;11.692;2023-04-23T11:37:08;3.20;;;2.90;;
6725;SDS011;3400;48.506;11.692;2023-04-23T11:39:37;2.93;;;2.60;;
6725;SDS011;3400;48.506;11.692;2023-04-23T11:42:08;2.80;;;2.60;;
6725;SDS011;3400;48.506;11.692;2023-04-23T11:44:39;2.47;;;2.23;;
6725;SDS011;3400;48.506;11.692;2023-04-23T11:47:22;2.17;;;2.07;;
6725;SDS011;3400;48.506;11.692;2023-04-23T11:49:53;3.23;;;2.60;;
6725;SDS011;3400;48.506;11.692;2023-04-23T11:52:22;2.50;;;2.10;;
6725;SDS011;3400;48.506;11.692;2023-04-23T11:54:50;3.30;;;2.93;;
6725;SDS011;3400;48.506;11.692;2023-04-23T11:57:18;3.83;;;2.40;;
6725;SDS011;3400;48.506;11.692;2023-04-23T11:59:46;3.43;;;2.30;;
6725;SDS011;3400;48.506;11.692;2023-04-23T12:02:13;2.73;;;2.50;;
6725;SDS011;3400;48.506;11.692;2023-04-23T12:04:43;3.17;;;2.87;;
6725;SDS011;3400;48.506;11.692;2023-04-23T12:07:11;4.67;;;2.97;;
6725;SDS011;3400;48.506;11.692;2023-04-23T12:09:39;3.50;;;3.20;;
6725;SDS011;3400;48.506;11.692;2023-04-23T12:12:09;3.20;;;2.90;;
6725;SDS011;3400;48.506;11.692;2023-04-23T12:14:38;2.80;;;2.60;;
6725;SDS011;3400;48.506;11.692;2023-04-23T12:17:10;2.50;;;2.30;;
6725;SDS011;3400;48.506;11.692;2023-04-23T12:19:38;3.57;;;2.63;;
6725;SDS011;3400;48.506;11.692;2023-04-23T12:22:10;3.60;;;2.43;;
6725;SDS011;3400;48.506;11.692;2023-04-23T12:24:48;2.40;;;2.20;;
6725;SDS011;3400;48.506;11.692;2023-04-23T12:30:17;2.75;;;2.55;;
6725;SDS011;3400;48.506;11.692;2023-04-23T12:32:45;2.33;;;1.90;;
6725;SDS011;3400;48.506;11.692;2023-04-23T12:35:12;2.40;;;2.00;;
6725;SDS011;3400;48.506;11.692;2023-04-23T12:37:42;2.85;;;1.83;;
6725;SDS011;3400;48.506;11.692;2023-04-23T12:40:10;3.47;;;2.33;;
6725;SDS011;3400;48.506;11.692;2023-04-23T12:42:38;1.67;;;1.52;;
6725;SDS011;3400;48.506;11.692;2023-04-23T12:45:07;2.17;;;1.98;;
6725;SDS011;3400;48.506;11.692;2023-04-23T12:47:35;1.77;;;1.67;;
6725;SDS011;3400;48.506;11.692;2023-04-23T12:50:03;2.25;;;1.80;;
6725;SDS011;3400;48.506;11.692;2023-04-23T12:52:31;1.80;;;1.70;;
6725;SDS011;3400;48.506;11.692;2023-04-23T12:55:00;2.33;;;1.48;;
6725;SDS011;3400;48.506;11.692;2023-04-23T12:57:29;2.03;;;1.60;;
6725;SDS011;3400;48.506;11.692;2023-04-23T12:59:57;3.13;;;1.80;;
6725;SDS011;3400;48.506;11.692;2023-04-23T13:02:25;1.60;;;1.50;;
6725;SDS011;3400;48.506;11.692;2023-04-23T13:04:52;3.00;;;1.75;;
6725;SDS011;3400;48.506;11.692;2023-04-23T13:07:25;1.50;;;1.40;;
6725;SDS011;3400;48.506;11.692;2023-04-23T13:09:53;1.60;;;1.50;;
6725;SDS011;3400;48.506;11.692;2023-04-23T13:12:23;1.75;;;1.65;;
6725;SDS011;3400;48.506;11.692;2023-04-23T13:14:50;1.55;;;1.45;;
6725;SDS011;3400;48.506;11.692;2023-04-23T13:17:18;1.98;;;1.88;;
6725;SDS011;3400;48.506;11.692;2023-04-23T13:19:46;1.50;;;1.42;;
6725;SDS011;3400;48.506;11.692;2023-04-23T13:22:14;1.73;;;1.55;;
6725;SDS011;3400;48.506;11.692;2023-04-23T13:24:42;1.90;;;1.80;;
6725;SDS011;3400;48.506;11.692;2023-04-23T13:27:09;2.08;;;1.98;;
6725;SDS011;3400;48.506;11.692;2023-04-23T13:29:39;2.05;;;1.95;;
6725;SDS011;3400;48.506;11.692;2023-04-23T13:32:06;3.33;;;2.05;;
6725;SDS011;3400;48.506;11.692;2023-04-23T13:34:34;4.28;;;2.47;;
6725;SDS011;3400;48.506;11.692;2023-04-23T13:37:02;2.20;;;2.10;;
6725;SDS011;3400;48.506;11.692;2023-04-23T13:39:33;2.92;;;2.08;;
6725;SDS011;3400;48.506;11.692;2023-04-23T13:42:01;3.25;;;2.25;;
6725;SDS011;3400;48.506;11.692;2023-04-23T13:44:29;2.30;;;2.10;;
6725;SDS011;3400;48.506;11.692;2023-04-23T13:46:58;3.07;;;2.43;;
6725;SDS011;3400;48.506;11.692;2023-04-23T13:49:26;2.60;;;2.40;;
6725;SDS011;3400;48.506;11.692;2023-04-23T13:51:54;3.83;;;2.27;;
6725;SDS011;3400;48.506;11.692;2023-04-23T13:54:24;2.30;;;2.10;;
6725;SDS011;3400;48.506;11.692;2023-04-23T13:56:52;2.83;;;2.63;;
6725;SDS011;3400;48.506;11.692;2023-04-23T13:59:20;1.93;;;1.83;;
6725;SDS011;3400;48.506;11.692;2023-04-23T14:01:48;2.43;;;2.23;;
6725;SDS011;3400;48.506;11.692;2023-04-23T14:04:17;6.20;;;2.53;;
6725;SDS011;3400;48.506;11.692;2023-04-23T14:06:45;2.60;;;2.40;;
6725;SDS011;3400;48.506;11.692;2023-04-23T14:09:13;4.00;;;2.73;;
6725;SDS011;3400;48.506;11.692;2023-04-23T14:11:41;3.33;;;2.57;;
6725;SDS011;3400;48.506;11.692;2023-04-23T14:14:09;2.90;;;2.67;;
6725;SDS011;3400;48.506;11.692;2023-04-23T14:16:36;2.87;;;2.67;;
6725;SDS011;3400;48.506;11.692;2023-04-23T14:19:04;3.03;;;2.50;;
6725;SDS011;3400;48.506;11.692;2023-04-23T14:21:34;5.07;;;2.80;;
6725;SDS011;3400;48.506;11.692;2023-04-23T14:24:07;3.43;;;3.10;;
6725;SDS011;3400;48.506;11.692;2023-04-23T14:26:36;2.70;;;2.50;;
6725;SDS011;3400;48.506;11.692;2023-04-23T14:29:08;3.07;;;2.87;;
6725;SDS011;3400;48.506;11.692;2023-04-23T14:31:36;3.00;;;2.80;;
6725;SDS011;3400;48.506;11.692;2023-04-23T14:34:04;3.00;;;2.70;;
6725;SDS011;3400;48.506;11.692;2023-04-23T14:36:32;3.20;;;2.93;;
6725;SDS011;3400;48.506;11.692;2023-04-23T14:39:01;2.50;;;2.30;;
6725;SDS011;3400;48.506;11.692;2023-04-23T14:41:30;3.10;;;2.90;;
6725;SDS011;3400;48.506;11.692;2023-04-23T14:43:58;2.77;;;2.57;;
6725;SDS011;3400;48.506;11.692;2023-04-23T14:46:26;3.20;;;2.67;;
6725;SDS011;3400;48.506;11.692;2023-04-23T14:48:54;4.00;;;3.10;;
6725;SDS011;3400;48.506;11.692;2023-04-23T14:51:22;2.60;;;2.40;;
6725;SDS011;3400;48.506;11.692;2023-04-23T14:53:51;3.40;;;2.70;;
6725;SDS011;3400;48.506;11.692;2023-04-23T14:56:21;2.83;;;2.63;;
6725;SDS011;3400;48.506;11.692;2023-04-23T14:58:49;3.20;;;2.87;;
6725;SDS011;3400;48.506;11.692;2023-04-23T15:01:16;3.17;;;2.67;;
6725;SDS011;3400;48.506;11.692;2023-04-23T15:03:44;4.63;;;2.47;;
6725;SDS011;3400;48.506;11.692;2023-04-23T15:06:12;4.33;;;2.80;;
6725;SDS011;3400;48.506;11.692;2023-04-23T15:08:40;2.40;;;2.20;;
6725;SDS011;3400;48.506;11.692;2023-04-23T15:11:08;2.37;;;2.17;;
6725;SDS011;3400;48.506;11.692;2023-04-23T15:13:43;4.70;;;2.83;;